sensor_id;sensor_type;location;lat;lon;timestamp;P1;durP1;ratioP1;P2;durP2;ratioP2
51618;SDS011;38518;53.164;5.430;2024-03-08T00:02:13;36.22;;;20.75;;
51618;SDS011;38518;53.164;5.430;2024-03-08T00:04:39;37.58;;;20.45;;
51618;SDS011;38518;53.164;5.430;2024-03-08T00:07:05;38.60;;;28.55;;
51618;SDS011;38518;53.164;5.430;2024-03-08T00:09:32;35.08;;;20.48;;
51618;SDS011;38518;53.164;5.430;2024-03-08T00:11:58;33.20;;;21.10;;
51618;SDS011;38518;53.164;5.430;2024-03-08T00:14:23;35.08;;;19.73;;
51618;SDS011;38518;53.164;5.430;2024-03-08T00:16:49;41.20;;;21.33;;
51618;SDS011;38518;53.164;5.430;2024-03-08T00:19:15;38.63;;;21.92;;
51618;SDS011;38518;53.164;5.430;2024-03-08T00:21:41;36.75;;;20.23;;
51618;SDS011;38518;53.164;5.430;2024-03-08T00:24:07;36.78;;;19.95;;
51618;SDS011;38518;53.164;5.430;2024-03-08T00:26:33;36.03;;;20.17;;
51618;SDS011;38518;53.164;5.430;2024-03-08T00:28:58;33.20;;;18.85;;
51618;SDS011;38518;53.164;5.430;2024-03-08T00:31:24;35.35;;;19.20;;
51618;SDS011;38518;53.164;5.430;2024-03-08T00:33:50;33.88;;;20.45;;
51618;SDS011;38518;53.164;5.430;2024-03-08T00:36:17;37.15;;;20.83;;
51618;SDS011;38518;53.164;5.430;2024-03-08T00:38:43;37.80;;;20.60;;
51618;SDS011;38518;53.164;5.430;2024-03-08T00:41:09;37.17;;;20.17;;
51618;SDS011;38518;53.164;5.430;2024-03-08T00:43:34;34.72;;;20.17;;
51618;SDS011;38518;53.164;5.430;2024-03-08T00:46:00;37.80;;;20.98;;
51618;SDS011;38518;53.164;5.430;2024-03-08T00:48:26;30.85;;;19.17;;
51618;SDS011;38518;53.164;5.430;2024-03-08T00:50:52;40.03;;;22.02;;
51618;SDS011;38518;53.164;5.430;2024-03-08T00:53:18;43.67;;;23.10;;
51618;SDS011;38518;53.164;5.430;2024-03-08T00:55:44;35.05;;;21.25;;
51618;SDS011;38518;53.164;5.430;2024-03-08T00:58:14;35.53;;;20.05;;
51618;SDS011;38518;53.164;5.430;2024-03-08T01:00:39;39.30;;;22.15;;
51618;SDS011;38518;53.164;5.430;2024-03-08T01:03:05;39.58;;;20.52;;
51618;SDS011;38518;53.164;5.430;2024-03-08T01:05:32;40.05;;;22.88;;
51618;SDS011;38518;53.164;5.430;2024-03-08T01:07:58;32.28;;;20.30;;
51618;SDS011;38518;53.164;5.430;2024-03-08T01:10:24;32.40;;;19.00;;
51618;SDS011;38518;53.164;5.430;2024-03-08T01:12:50;38.38;;;20.50;;
51618;SDS011;38518;53.164;5.430;2024-03-08T01:15:16;40.58;;;21.17;;
51618;SDS011;38518;53.164;5.430;2024-03-08T01:17:41;38.88;;;22.63;;
51618;SDS011;38518;53.164;5.430;2024-03-08T01:20:09;38.15;;;22.13;;
51618;SDS011;38518;53.164;5.430;2024-03-08T01:22:37;39.00;;;21.95;;
51618;SDS011;38518;53.164;5.430;2024-03-08T01:25:03;35.97;;;22.33;;
51618;SDS011;38518;53.164;5.430;2024-03-08T01:27:30;37.22;;;21.55;;
51618;SDS011;38518;53.164;5.430;2024-03-08T01:29:56;36.30;;;21.02;;
51618;SDS011;38518;53.164;5.430;2024-03-08T01:32:24;41.45;;;23.95;;
51618;SDS011;38518;53.164;5.430;2024-03-08T01:34:50;37.78;;;22.23;;
51618;SDS011;38518;53.164;5.430;2024-03-08T01:37:16;41.35;;;23.27;;
51618;SDS011;38518;53.164;5.430;2024-03-08T01:39:41;37.30;;;21.48;;
51618;SDS011;38518;53.164;5.430;2024-03-08T01:42:07;40.53;;;22.67;;
51618;SDS011;38518;53.164;5.430;2024-03-08T01:44:33;38.35;;;22.65;;
51618;SDS011;38518;53.164;5.430;2024-03-08T01:46:59;39.20;;;22.50;;
51618;SDS011;38518;53.164;5.430;2024-03-08T01:49:26;39.25;;;22.30;;
51618;SDS011;38518;53.164;5.430;2024-03-08T01:51:53;42.13;;;21.98;;
51618;SDS011;38518;53.164;5.430;2024-03-08T01:54:21;41.88;;;23.73;;
51618;SDS011;38518;53.164;5.430;2024-03-08T01:56:48;42.00;;;23.08;;
51618;SDS011;38518;53.164;5.430;2024-03-08T01:59:14;39.28;;;22.25;;
51618;SDS011;38518;53.164;5.430;2024-03-08T02:01:41;43.53;;;23.95;;
51618;SDS011;38518;53.164;5.430;2024-03-08T02:04:07;35.92;;;22.98;;
51618;SDS011;38518;53.164;5.430;2024-03-08T02:06:33;38.55;;;24.05;;
51618;SDS011;38518;53.164;5.430;2024-03-08T02:08:59;38.60;;;23.05;;
51618;SDS011;38518;53.164;5.430;2024-03-08T02:11:26;38.05;;;21.70;;
51618;SDS011;38518;53.164;5.430;2024-03-08T02:13:52;39.47;;;23.10;;
51618;SDS011;38518;53.164;5.430;2024-03-08T02:16:21;44.30;;;23.48;;
51618;SDS011;38518;53.164;5.430;2024-03-08T02:18:47;40.33;;;23.73;;
51618;SDS011;38518;53.164;5.430;2024-03-08T02:21:13;43.95;;;23.33;;
51618;SDS011;38518;53.164;5.430;2024-03-08T02:23:39;42.60;;;24.02;;
51618;SDS011;38518;53.164;5.430;2024-03-08T02:26:05;37.63;;;22.95;;
51618;SDS011;38518;53.164;5.430;2024-03-08T02:28:32;47.00;;;25.00;;
51618;SDS011;38518;53.164;5.430;2024-03-08T02:30:59;42.95;;;23.85;;
51618;SDS011;38518;53.164;5.430;2024-03-08T02:33:26;43.95;;;24.30;;
51618;SDS011;38518;53.164;5.430;2024-03-08T02:35:52;40.08;;;23.23;;
51618;SDS011;38518;53.164;5.430;2024-03-08T02:38:18;43.33;;;24.92;;
51618;SDS011;38518;53.164;5.430;2024-03-08T02:40:52;43.30;;;25.42;;
51618;SDS011;38518;53.164;5.430;2024-03-08T02:43:18;45.97;;;24.92;;
51618;SDS011;38518;53.164;5.430;2024-03-08T02:45:45;44.45;;;22.88;;
51618;SDS011;38518;53.164;5.430;2024-03-08T02:48:11;41.90;;;22.90;;
51618;SDS011;38518;53.164;5.430;2024-03-08T02:50:37;44.40;;;24.73;;
51618;SDS011;38518;53.164;5.430;2024-03-08T02:53:05;46.40;;;26.70;;
51618;SDS011;38518;53.164;5.430;2024-03-08T02:55:31;49.83;;;27.00;;
51618;SDS011;38518;53.164;5.430;2024-03-08T02:58:01;45.90;;;24.92;;
51618;SDS011;38518;53.164;5.430;2024-03-08T03:00:30;48.83;;;25.05;;
51618;SDS011;38518;53.164;5.430;2024-03-08T03:02:56;45.35;;;25.33;;
51618;SDS011;38518;53.164;5.430;2024-03-08T03:05:23;42.50;;;24.55;;
51618;SDS011;38518;53.164;5.430;2024-03-08T03:07:49;46.92;;;25.67;;
51618;SDS011;38518;53.164;5.430;2024-03-08T03:10:16;42.70;;;24.35;;
51618;SDS011;38518;53.164;5.430;2024-03-08T03:12:43;45.83;;;24.58;;
51618;SDS011;38518;53.164;5.430;2024-03-08T03:15:12;48.88;;;24.70;;
51618;SDS011;38518;53.164;5.430;2024-03-08T03:17:41;45.55;;;25.20;;
51618;SDS011;38518;53.164;5.430;2024-03-08T03:20:16;46.78;;;27.02;;
51618;SDS011;38518;53.164;5.430;2024-03-08T03:22:51;50.45;;;26.85;;
51618;SDS011;38518;53.164;5.430;2024-03-08T03:25:18;46.45;;;26.23;;
51618;SDS011;38518;53.164;5.430;2024-03-08T03:27:49;47.38;;;26.45;;
51618;SDS011;38518;53.164;5.430;2024-03-08T03:30:15;46.70;;;27.13;;
51618;SDS011;38518;53.164;5.430;2024-03-08T03:32:49;48.45;;;26.23;;
51618;SDS011;38518;53.164;5.430;2024-03-08T03:35:19;48.72;;;27.48;;
51618;SDS011;38518;53.164;5.430;2024-03-08T03:37:46;46.20;;;26.42;;
51618;SDS011;38518;53.164;5.430;2024-03-08T03:40:34;50.22;;;27.25;;
51618;SDS011;38518;53.164;5.430;2024-03-08T03:43:00;52.53;;;27.70;;
51618;SDS011;38518;53.164;5.430;2024-03-08T03:45:27;46.55;;;24.75;;
51618;SDS011;38518;53.164;5.430;2024-03-08T03:47:54;46.55;;;26.42;;
51618;SDS011;38518;53.164;5.430;2024-03-08T03:50:20;47.70;;;26.13;;
51618;SDS011;38518;53.164;5.430;2024-03-08T03:52:47;51.17;;;26.05;;
51618;SDS011;38518;53.164;5.430;2024-03-08T03:55:13;47.00;;;25.73;;
51618;SDS011;38518;53.164;5.430;2024-03-08T03:57:40;48.88;;;27.88;;
51618;SDS011;38518;53.164;5.430;2024-03-08T04:00:06;50.30;;;27.80;;
51618;SDS011;38518;53.164;5.430;2024-03-08T04:02:38;49.33;;;27.58;;
51618;SDS011;38518;53.164;5.430;2024-03-08T04:05:05;51.30;;;28.13;;
51618;SDS011;38518;53.164;5.430;2024-03-08T04:07:32;41.90;;;22.80;;
51618;SDS011;38518;53.164;5.430;2024-03-08T04:09:59;48.38;;;25.33;;
51618;SDS011;38518;53.164;5.430;2024-03-08T04:12:28;48.75;;;26.70;;
51618;SDS011;38518;53.164;5.430;2024-03-08T04:14:55;47.55;;;25.85;;
51618;SDS011;38518;53.164;5.430;2024-03-08T04:17:21;45.08;;;25.25;;
51618;SDS011;38518;53.164;5.430;2024-03-08T04:19:49;48.25;;;26.70;;
51618;SDS011;38518;53.164;5.430;2024-03-08T04:22:15;52.13;;;27.30;;
51618;SDS011;38518;53.164;5.430;2024-03-08T04:24:43;44.38;;;25.10;;
51618;SDS011;38518;53.164;5.430;2024-03-08T04:27:09;48.90;;;25.42;;
51618;SDS011;38518;53.164;5.430;2024-03-08T04:29:35;45.88;;;25.75;;
51618;SDS011;38518;53.164;5.430;2024-03-08T04:32:04;46.13;;;25.60;;
51618;SDS011;38518;53.164;5.430;2024-03-08T04:34:31;48.83;;;25.55;;
51618;SDS011;38518;53.164;5.430;2024-03-08T04:36:58;48.38;;;26.48;;
51618;SDS011;38518;53.164;5.430;2024-03-08T04:39:25;43.70;;;26.38;;
51618;SDS011;38518;53.164;5.430;2024-03-08T04:41:53;45.42;;;26.38;;
51618;SDS011;38518;53.164;5.430;2024-03-08T04:44:22;47.75;;;28.27;;
51618;SDS011;38518;53.164;5.430;2024-03-08T04:46:49;50.08;;;27.45;;
51618;SDS011;38518;53.164;5.430;2024-03-08T04:49:15;48.53;;;26.20;;
51618;SDS011;38518;53.164;5.430;2024-03-08T04:51:41;43.75;;;27.00;;
51618;SDS011;38518;53.164;5.430;2024-03-08T04:54:07;48.47;;;26.58;;
51618;SDS011;38518;53.164;5.430;2024-03-08T04:56:33;45.13;;;25.65;;
51618;SDS011;38518;53.164;5.430;2024-03-08T04:58:59;47.97;;;28.88;;
51618;SDS011;38518;53.164;5.430;2024-03-08T05:01:25;50.03;;;27.40;;
51618;SDS011;38518;53.164;5.430;2024-03-08T05:03:51;44.10;;;26.52;;
51618;SDS011;38518;53.164;5.430;2024-03-08T05:06:20;45.95;;;25.83;;
51618;SDS011;38518;53.164;5.430;2024-03-08T05:08:46;48.63;;;27.85;;
51618;SDS011;38518;53.164;5.430;2024-03-08T05:11:12;46.40;;;26.70;;
51618;SDS011;38518;53.164;5.430;2024-03-08T05:13:39;50.83;;;28.25;;
51618;SDS011;38518;53.164;5.430;2024-03-08T05:16:17;53.92;;;27.80;;
51618;SDS011;38518;53.164;5.430;2024-03-08T05:18:43;45.13;;;27.65;;
51618;SDS011;38518;53.164;5.430;2024-03-08T05:21:09;47.83;;;27.92;;
51618;SDS011;38518;53.164;5.430;2024-03-08T05:23:35;46.10;;;26.77;;
51618;SDS011;38518;53.164;5.430;2024-03-08T05:26:01;47.85;;;28.70;;
51618;SDS011;38518;53.164;5.430;2024-03-08T05:28:27;47.65;;;27.92;;
51618;SDS011;38518;53.164;5.430;2024-03-08T05:30:52;45.67;;;26.60;;
51618;SDS011;38518;53.164;5.430;2024-03-08T05:33:21;49.58;;;26.23;;
51618;SDS011;38518;53.164;5.430;2024-03-08T05:35:49;44.47;;;24.83;;
51618;SDS011;38518;53.164;5.430;2024-03-08T05:38:15;44.83;;;27.27;;
51618;SDS011;38518;53.164;5.430;2024-03-08T05:40:41;47.80;;;26.38;;
51618;SDS011;38518;53.164;5.430;2024-03-08T05:43:08;47.88;;;25.65;;
51618;SDS011;38518;53.164;5.430;2024-03-08T05:45:34;42.47;;;25.15;;
51618;SDS011;38518;53.164;5.430;2024-03-08T05:48:00;41.35;;;22.00;;
51618;SDS011;38518;53.164;5.430;2024-03-08T05:50:26;48.28;;;25.75;;
51618;SDS011;38518;53.164;5.430;2024-03-08T05:52:52;47.03;;;26.92;;
51618;SDS011;38518;53.164;5.430;2024-03-08T05:55:18;48.17;;;27.23;;
51618;SDS011;38518;53.164;5.430;2024-03-08T05:57:44;44.72;;;25.42;;
51618;SDS011;38518;53.164;5.430;2024-03-08T06:00:10;46.72;;;25.83;;
51618;SDS011;38518;53.164;5.430;2024-03-08T06:02:36;48.25;;;26.10;;
51618;SDS011;38518;53.164;5.430;2024-03-08T06:05:07;46.95;;;24.98;;
51618;SDS011;38518;53.164;5.430;2024-03-08T06:07:34;47.00;;;25.73;;
51618;SDS011;38518;53.164;5.430;2024-03-08T06:09:59;41.25;;;21.05;;
51618;SDS011;38518;53.164;5.430;2024-03-08T06:12:25;47.28;;;24.15;;
51618;SDS011;38518;53.164;5.430;2024-03-08T06:14:54;46.85;;;25.98;;
51618;SDS011;38518;53.164;5.430;2024-03-08T06:17:20;47.88;;;27.30;;
51618;SDS011;38518;53.164;5.430;2024-03-08T06:19:50;44.00;;;25.58;;
51618;SDS011;38518;53.164;5.430;2024-03-08T06:22:17;49.03;;;25.23;;
51618;SDS011;38518;53.164;5.430;2024-03-08T06:24:45;48.40;;;26.20;;
51618;SDS011;38518;53.164;5.430;2024-03-08T06:27:10;48.22;;;27.58;;
51618;SDS011;38518;53.164;5.430;2024-03-08T06:29:36;44.70;;;25.85;;
51618;SDS011;38518;53.164;5.430;2024-03-08T06:32:02;45.80;;;24.60;;
51618;SDS011;38518;53.164;5.430;2024-03-08T06:34:28;44.95;;;24.75;;
51618;SDS011;38518;53.164;5.430;2024-03-08T06:36:53;45.78;;;27.80;;
51618;SDS011;38518;53.164;5.430;2024-03-08T06:39:26;46.72;;;23.83;;
51618;SDS011;38518;53.164;5.430;2024-03-08T06:41:52;43.97;;;24.13;;
51618;SDS011;38518;53.164;5.430;2024-03-08T06:44:17;44.55;;;24.95;;
51618;SDS011;38518;53.164;5.430;2024-03-08T06:46:46;44.63;;;25.98;;
51618;SDS011;38518;53.164;5.430;2024-03-08T06:49:14;47.05;;;26.08;;
51618;SDS011;38518;53.164;5.430;2024-03-08T06:51:45;41.50;;;24.92;;
51618;SDS011;38518;53.164;5.430;2024-03-08T06:54:11;42.88;;;25.90;;
51618;SDS011;38518;53.164;5.430;2024-03-08T06:56:41;44.35;;;25.45;;
51618;SDS011;38518;53.164;5.430;2024-03-08T06:59:08;41.60;;;24.25;;
51618;SDS011;38518;53.164;5.430;2024-03-08T07:01:35;44.30;;;25.38;;
51618;SDS011;38518;53.164;5.430;2024-03-08T07:04:01;40.78;;;22.08;;
51618;SDS011;38518;53.164;5.430;2024-03-08T07:06:30;44.17;;;25.40;;
51618;SDS011;38518;53.164;5.430;2024-03-08T07:08:59;38.95;;;24.70;;
51618;SDS011;38518;53.164;5.430;2024-03-08T07:11:26;38.80;;;22.38;;
51618;SDS011;38518;53.164;5.430;2024-03-08T07:13:54;47.90;;;26.38;;
51618;SDS011;38518;53.164;5.430;2024-03-08T07:16:20;43.45;;;26.60;;
51618;SDS011;38518;53.164;5.430;2024-03-08T07:18:46;41.35;;;25.52;;
51618;SDS011;38518;53.164;5.430;2024-03-08T07:21:12;37.10;;;23.42;;
51618;SDS011;38518;53.164;5.430;2024-03-08T07:23:38;39.55;;;24.33;;
51618;SDS011;38518;53.164;5.430;2024-03-08T07:26:33;36.40;;;21.23;;
51618;SDS011;38518;53.164;5.430;2024-03-08T07:28:59;42.65;;;26.23;;
51618;SDS011;38518;53.164;5.430;2024-03-08T07:31:25;42.03;;;25.17;;
51618;SDS011;38518;53.164;5.430;2024-03-08T07:33:51;39.85;;;23.98;;
51618;SDS011;38518;53.164;5.430;2024-03-08T07:36:21;37.10;;;22.45;;
51618;SDS011;38518;53.164;5.430;2024-03-08T07:38:49;33.97;;;21.20;;
51618;SDS011;38518;53.164;5.430;2024-03-08T07:41:15;38.70;;;24.23;;
51618;SDS011;38518;53.164;5.430;2024-03-08T07:43:41;39.70;;;24.83;;
51618;SDS011;38518;53.164;5.430;2024-03-08T07:46:09;35.75;;;22.55;;
51618;SDS011;38518;53.164;5.430;2024-03-08T07:48:35;35.65;;;22.10;;
51618;SDS011;38518;53.164;5.430;2024-03-08T07:51:02;40.58;;;23.35;;
51618;SDS011;38518;53.164;5.430;2024-03-08T07:53:30;35.72;;;23.63;;
51618;SDS011;38518;53.164;5.430;2024-03-08T07:55:59;37.05;;;22.95;;
51618;SDS011;38518;53.164;5.430;2024-03-08T07:58:51;39.30;;;22.48;;
51618;SDS011;38518;53.164;5.430;2024-03-08T08:01:26;35.85;;;22.05;;
51618;SDS011;38518;53.164;5.430;2024-03-08T08:07:50;34.80;;;21.60;;
51618;SDS011;38518;53.164;5.430;2024-03-08T08:10:18;34.88;;;28.00;;
51618;SDS011;38518;53.164;5.430;2024-03-08T08:12:47;37.33;;;22.27;;
51618;SDS011;38518;53.164;5.430;2024-03-08T08:15:13;37.92;;;22.70;;
51618;SDS011;38518;53.164;5.430;2024-03-08T08:17:43;37.05;;;22.65;;
51618;SDS011;38518;53.164;5.430;2024-03-08T08:20:10;31.42;;;20.88;;
51618;SDS011;38518;53.164;5.430;2024-03-08T08:25:37;34.15;;;22.30;;
51618;SDS011;38518;53.164;5.430;2024-03-08T08:28:03;34.88;;;22.52;;
51618;SDS011;38518;53.164;5.430;2024-03-08T08:30:29;35.22;;;23.73;;
51618;SDS011;38518;53.164;5.430;2024-03-08T08:33:04;31.58;;;25.65;;
51618;SDS011;38518;53.164;5.430;2024-03-08T08:35:30;36.35;;;23.52;;
51618;SDS011;38518;53.164;5.430;2024-03-08T08:37:57;32.95;;;25.88;;
51618;SDS011;38518;53.164;5.430;2024-03-08T08:40:24;32.45;;;26.65;;
51618;SDS011;38518;53.164;5.430;2024-03-08T08:42:51;32.92;;;23.23;;
51618;SDS011;38518;53.164;5.430;2024-03-08T08:45:18;31.67;;;21.90;;
51618;SDS011;38518;53.164;5.430;2024-03-08T08:47:44;30.80;;;26.48;;
51618;SDS011;38518;53.164;5.430;2024-03-08T08:50:10;29.13;;;24.38;;
51618;SDS011;38518;53.164;5.430;2024-03-08T08:52:39;29.20;;;24.80;;
51618;SDS011;38518;53.164;5.430;2024-03-08T08:55:05;30.75;;;24.20;;
51618;SDS011;38518;53.164;5.430;2024-03-08T08:57:32;34.72;;;25.92;;
51618;SDS011;38518;53.164;5.430;2024-03-08T08:59:58;28.25;;;24.73;;
51618;SDS011;38518;53.164;5.430;2024-03-08T09:02:25;30.98;;;25.38;;
51618;SDS011;38518;53.164;5.430;2024-03-08T09:04:51;30.60;;;26.25;;
51618;SDS011;38518;53.164;5.430;2024-03-08T09:07:18;30.35;;;24.27;;
51618;SDS011;38518;53.164;5.430;2024-03-08T09:09:44;29.67;;;25.23;;
51618;SDS011;38518;53.164;5.430;2024-03-08T09:12:10;28.83;;;25.10;;
51618;SDS011;38518;53.164;5.430;2024-03-08T09:14:42;29.92;;;24.52;;
51618;SDS011;38518;53.164;5.430;2024-03-08T09:17:08;30.25;;;25.15;;
51618;SDS011;38518;53.164;5.430;2024-03-08T09:19:34;30.08;;;25.35;;
51618;SDS011;38518;53.164;5.430;2024-03-08T09:22:06;28.38;;;25.05;;
51618;SDS011;38518;53.164;5.430;2024-03-08T09:24:32;28.17;;;24.95;;
51618;SDS011;38518;53.164;5.430;2024-03-08T09:26:58;27.35;;;22.75;;
51618;SDS011;38518;53.164;5.430;2024-03-08T09:29:24;28.02;;;23.95;;
51618;SDS011;38518;53.164;5.430;2024-03-08T09:31:49;26.15;;;22.98;;
51618;SDS011;38518;53.164;5.430;2024-03-08T09:34:16;27.38;;;22.75;;
51618;SDS011;38518;53.164;5.430;2024-03-08T09:36:44;27.60;;;22.90;;
51618;SDS011;38518;53.164;5.430;2024-03-08T09:39:13;25.77;;;23.05;;
51618;SDS011;38518;53.164;5.430;2024-03-08T09:41:42;30.20;;;25.00;;
51618;SDS011;38518;53.164;5.430;2024-03-08T09:44:09;25.55;;;22.77;;
51618;SDS011;38518;53.164;5.430;2024-03-08T09:46:35;27.63;;;23.45;;
51618;SDS011;38518;53.164;5.430;2024-03-08T09:49:01;27.17;;;23.75;;
51618;SDS011;38518;53.164;5.430;2024-03-08T09:51:28;23.85;;;21.23;;
51618;SDS011;38518;53.164;5.430;2024-03-08T09:54:05;25.33;;;22.08;;
51618;SDS011;38518;53.164;5.430;2024-03-08T09:56:35;26.40;;;23.20;;
51618;SDS011;38518;53.164;5.430;2024-03-08T09:59:01;26.90;;;22.35;;
51618;SDS011;38518;53.164;5.430;2024-03-08T10:01:37;25.73;;;23.02;;
51618;SDS011;38518;53.164;5.430;2024-03-08T10:04:06;25.90;;;23.15;;
51618;SDS011;38518;53.164;5.430;2024-03-08T10:06:32;27.27;;;23.55;;
51618;SDS011;38518;53.164;5.430;2024-03-08T10:09:01;25.05;;;22.40;;
51618;SDS011;38518;53.164;5.430;2024-03-08T10:11:27;26.10;;;23.35;;
51618;SDS011;38518;53.164;5.430;2024-03-08T10:13:56;25.65;;;21.70;;
51618;SDS011;38518;53.164;5.430;2024-03-08T10:16:22;28.00;;;23.75;;
51618;SDS011;38518;53.164;5.430;2024-03-08T10:18:49;27.08;;;23.30;;
51618;SDS011;38518;53.164;5.430;2024-03-08T10:21:15;26.13;;;23.13;;
51618;SDS011;38518;53.164;5.430;2024-03-08T10:23:42;26.88;;;23.70;;
51618;SDS011;38518;53.164;5.430;2024-03-08T10:26:17;26.33;;;23.40;;
51618;SDS011;38518;53.164;5.430;2024-03-08T10:28:48;26.92;;;23.60;;
51618;SDS011;38518;53.164;5.430;2024-03-08T10:31:15;26.38;;;23.67;;
51618;SDS011;38518;53.164;5.430;2024-03-08T10:33:44;27.50;;;23.17;;
51618;SDS011;38518;53.164;5.430;2024-03-08T10:36:10;26.35;;;23.55;;
51618;SDS011;38518;53.164;5.430;2024-03-08T10:38:38;28.23;;;24.85;;
51618;SDS011;38518;53.164;5.430;2024-03-08T10:41:06;26.27;;;23.48;;
51618;SDS011;38518;53.164;5.430;2024-03-08T10:43:39;27.90;;;24.85;;
51618;SDS011;38518;53.164;5.430;2024-03-08T10:49:06;28.15;;;25.08;;
51618;SDS011;38518;53.164;5.430;2024-03-08T10:51:42;28.65;;;25.55;;
51618;SDS011;38518;53.164;5.430;2024-03-08T10:54:09;27.80;;;24.83;;
51618;SDS011;38518;53.164;5.430;2024-03-08T10:56:37;27.27;;;24.17;;
51618;SDS011;38518;53.164;5.430;2024-03-08T10:59:05;27.85;;;24.85;;
51618;SDS011;38518;53.164;5.430;2024-03-08T11:01:35;27.98;;;24.90;;
51618;SDS011;38518;53.164;5.430;2024-03-08T11:04:03;27.75;;;24.30;;
51618;SDS011;38518;53.164;5.430;2024-03-08T11:06:30;26.75;;;23.92;;
51618;SDS011;38518;53.164;5.430;2024-03-08T11:09:03;27.50;;;24.58;;
51618;SDS011;38518;53.164;5.430;2024-03-08T11:11:47;26.10;;;23.45;;
51618;SDS011;38518;53.164;5.430;2024-03-08T11:14:56;26.73;;;24.00;;
51618;SDS011;38518;53.164;5.430;2024-03-08T11:17:09;27.67;;;24.13;;
51618;SDS011;38518;53.164;5.430;2024-03-08T11:19:35;28.58;;;23.67;;
51618;SDS011;38518;53.164;5.430;2024-03-08T11:22:01;27.08;;;24.15;;
51618;SDS011;38518;53.164;5.430;2024-03-08T11:24:36;27.40;;;24.52;;
51618;SDS011;38518;53.164;5.430;2024-03-08T11:27:06;27.67;;;24.77;;
51618;SDS011;38518;53.164;5.430;2024-03-08T11:29:35;25.92;;;23.27;;
51618;SDS011;38518;53.164;5.430;2024-03-08T11:32:08;26.52;;;23.33;;
51618;SDS011;38518;53.164;5.430;2024-03-08T11:37:15;26.27;;;23.58;;
51618;SDS011;38518;53.164;5.430;2024-03-08T11:39:46;26.23;;;23.38;;
51618;SDS011;38518;53.164;5.430;2024-03-08T11:42:16;26.13;;;23.45;;
51618;SDS011;38518;53.164;5.430;2024-03-08T11:44:43;26.13;;;23.52;;
51618;SDS011;38518;53.164;5.430;2024-03-08T11:47:13;27.52;;;24.73;;
51618;SDS011;38518;53.164;5.430;2024-03-08T11:49:39;27.63;;;24.63;;
51618;SDS011;38518;53.164;5.430;2024-03-08T11:52:15;28.73;;;23.90;;
51618;SDS011;38518;53.164;5.430;2024-03-08T11:54:47;27.50;;;24.55;;
51618;SDS011;38518;53.164;5.430;2024-03-08T11:57:23;25.63;;;22.92;;
51618;SDS011;38518;53.164;5.430;2024-03-08T11:59:50;26.52;;;23.83;;
51618;SDS011;38518;53.164;5.430;2024-03-08T12:02:18;27.52;;;24.60;;
51618;SDS011;38518;53.164;5.430;2024-03-08T12:04:55;26.35;;;23.65;;
51618;SDS011;38518;53.164;5.430;2024-03-08T12:07:27;26.55;;;23.85;;
51618;SDS011;38518;53.164;5.430;2024-03-08T12:12:43;26.35;;;23.55;;
51618;SDS011;38518;53.164;5.430;2024-03-08T12:15:12;26.10;;;23.48;;
51618;SDS011;38518;53.164;5.430;2024-03-08T12:17:40;26.08;;;23.30;;
51618;SDS011;38518;53.164;5.430;2024-03-08T12:20:11;26.42;;;21.90;;
51618;SDS011;38518;53.164;5.430;2024-03-08T12:22:42;25.63;;;22.98;;
51618;SDS011;38518;53.164;5.430;2024-03-08T12:25:08;25.95;;;23.35;;
51618;SDS011;38518;53.164;5.430;2024-03-08T12:27:41;25.70;;;22.95;;
51618;SDS011;38518;53.164;5.430;2024-03-08T12:30:26;26.92;;;24.02;;
51618;SDS011;38518;53.164;5.430;2024-03-08T12:32:59;26.13;;;23.35;;
51618;SDS011;38518;53.164;5.430;2024-03-08T12:35:26;25.67;;;23.00;;
51618;SDS011;38518;53.164;5.430;2024-03-08T12:37:53;25.33;;;22.83;;
51618;SDS011;38518;53.164;5.430;2024-03-08T12:40:31;24.67;;;22.08;;
51618;SDS011;38518;53.164;5.430;2024-03-08T12:42:57;25.60;;;22.90;;
51618;SDS011;38518;53.164;5.430;2024-03-08T12:45:24;26.08;;;23.33;;
51618;SDS011;38518;53.164;5.430;2024-03-08T12:47:53;26.50;;;23.77;;
51618;SDS011;38518;53.164;5.430;2024-03-08T12:50:20;27.27;;;24.23;;
51618;SDS011;38518;53.164;5.430;2024-03-08T12:52:46;26.02;;;23.42;;
51618;SDS011;38518;53.164;5.430;2024-03-08T12:55:13;25.80;;;23.30;;
51618;SDS011;38518;53.164;5.430;2024-03-08T12:57:41;25.50;;;22.90;;
51618;SDS011;38518;53.164;5.430;2024-03-08T13:00:08;26.77;;;24.08;;
51618;SDS011;38518;53.164;5.430;2024-03-08T13:02:41;26.70;;;23.98;;
51618;SDS011;38518;53.164;5.430;2024-03-08T13:05:07;26.23;;;23.67;;
51618;SDS011;38518;53.164;5.430;2024-03-08T13:07:34;26.15;;;23.30;;
51618;SDS011;38518;53.164;5.430;2024-03-08T13:10:02;26.05;;;23.35;;
51618;SDS011;38518;53.164;5.430;2024-03-08T13:12:31;26.35;;;23.65;;
51618;SDS011;38518;53.164;5.430;2024-03-08T13:15:00;26.38;;;23.58;;
51618;SDS011;38518;53.164;5.430;2024-03-08T13:17:29;25.98;;;23.33;;
51618;SDS011;38518;53.164;5.430;2024-03-08T13:23:40;25.63;;;22.95;;
51618;SDS011;38518;53.164;5.430;2024-03-08T13:26:10;27.20;;;24.27;;
51618;SDS011;38518;53.164;5.430;2024-03-08T13:28:47;25.08;;;22.30;;
51618;SDS011;38518;53.164;5.430;2024-03-08T13:31:17;26.52;;;23.88;;
51618;SDS011;38518;53.164;5.430;2024-03-08T13:33:43;25.80;;;22.60;;
51618;SDS011;38518;53.164;5.430;2024-03-08T13:36:12;24.77;;;22.27;;
51618;SDS011;38518;53.164;5.430;2024-03-08T13:38:45;25.33;;;22.75;;
51618;SDS011;38518;53.164;5.430;2024-03-08T13:41:11;26.75;;;23.75;;
51618;SDS011;38518;53.164;5.430;2024-03-08T13:43:40;27.25;;;24.15;;
51618;SDS011;38518;53.164;5.430;2024-03-08T13:46:06;24.92;;;22.33;;
51618;SDS011;38518;53.164;5.430;2024-03-08T13:48:33;25.23;;;22.67;;
51618;SDS011;38518;53.164;5.430;2024-03-08T13:50:59;24.05;;;21.55;;
51618;SDS011;38518;53.164;5.430;2024-03-08T13:53:25;24.80;;;22.25;;
51618;SDS011;38518;53.164;5.430;2024-03-08T13:55:51;25.38;;;22.67;;
51618;SDS011;38518;53.164;5.430;2024-03-08T13:58:20;24.63;;;22.02;;
51618;SDS011;38518;53.164;5.430;2024-03-08T14:00:46;23.92;;;21.52;;
51618;SDS011;38518;53.164;5.430;2024-03-08T14:03:13;24.75;;;22.15;;
51618;SDS011;38518;53.164;5.430;2024-03-08T14:05:39;26.20;;;22.98;;
51618;SDS011;38518;53.164;5.430;2024-03-08T14:08:06;24.20;;;21.65;;
51618;SDS011;38518;53.164;5.430;2024-03-08T14:10:35;26.05;;;23.35;;
51618;SDS011;38518;53.164;5.430;2024-03-08T14:13:04;24.50;;;20.88;;
51618;SDS011;38518;53.164;5.430;2024-03-08T14:15:32;23.25;;;20.95;;
51618;SDS011;38518;53.164;5.430;2024-03-08T14:17:59;24.80;;;22.13;;
51618;SDS011;38518;53.164;5.430;2024-03-08T14:20:26;24.63;;;22.02;;
51618;SDS011;38518;53.164;5.430;2024-03-08T14:22:56;25.90;;;23.17;;
51618;SDS011;38518;53.164;5.430;2024-03-08T14:27:55;25.17;;;22.52;;
51618;SDS011;38518;53.164;5.430;2024-03-08T14:30:27;26.80;;;24.10;;
51618;SDS011;38518;53.164;5.430;2024-03-08T14:33:06;27.52;;;24.63;;
51618;SDS011;38518;53.164;5.430;2024-03-08T14:35:37;27.05;;;24.25;;
51618;SDS011;38518;53.164;5.430;2024-03-08T14:38:04;26.70;;;23.52;;
51618;SDS011;38518;53.164;5.430;2024-03-08T14:40:33;25.85;;;23.20;;
51618;SDS011;38518;53.164;5.430;2024-03-08T14:42:59;24.85;;;22.35;;
51618;SDS011;38518;53.164;5.430;2024-03-08T14:45:26;25.70;;;21.63;;
51618;SDS011;38518;53.164;5.430;2024-03-08T14:48:13;25.35;;;22.55;;